createdAt,value
2022-08-03T00:00:29.703Z,76.26
2022-08-03T00:01:29.708Z,76.56
2022-08-03T00:02:29.666Z,77.17
2022-08-03T00:03:29.724Z,76.76
2022-08-03T00:04:34.133Z,76.67
2022-08-03T00:05:29.623Z,76.56
2022-08-03T00:06:33.781Z,75.87
2022-08-03T00:07:29.606Z,76.46
2022-08-03T00:08:29.581Z,77.06
2022-08-03T00:09:29.557Z,77.36
2022-08-03T00:10:29.557Z,77.06
2022-08-03T00:11:29.521Z,76.46
2022-08-03T00:12:29.507Z,77.06
2022-08-03T00:13:29.491Z,76.97
2022-08-03T00:14:29.481Z,77.26
2022-08-03T00:15:29.474Z,77.86
2022-08-03T00:16:29.445Z,78.17
2022-08-03T00:17:29.428Z,78.17
2022-08-03T00:18:29.415Z,77.76
2022-08-03T00:19:29.390Z,77.47
2022-08-03T00:20:29.399Z,77.80
2022-08-03T00:21:29.376Z,77.91
2022-08-03T00:22:29.346Z,78.60
2022-08-03T00:23:51.652Z,78.70
2022-08-03T00:24:29.313Z,78.70
2022-08-03T00:25:29.312Z,79.00
2022-08-03T00:26:29.288Z,78.80
2022-08-03T00:27:29.261Z,78.50
2022-08-03T00:28:29.249Z,78.60
2022-08-03T00:29:29.241Z,78.91
2022-08-03T00:30:30.825Z,78.70
2022-08-03T00:31:52.133Z,78.10
2022-08-03T00:32:29.184Z,78.56
2022-08-03T00:33:29.167Z,78.17
2022-08-03T00:34:36.408Z,77.76
2022-08-03T00:35:41.955Z,77.97
2022-08-03T00:36:29.119Z,77.86
2022-08-03T00:37:41.417Z,78.06
2022-08-03T00:38:29.083Z,77.67
2022-08-03T00:39:29.089Z,77.86
2022-08-03T00:40:29.055Z,77.97
2022-08-03T00:41:29.044Z,78.36
2022-08-03T00:42:29.024Z,78.47
2022-08-03T00:43:29.034Z,78.17
2022-08-03T00:44:28.990Z,77.67
2022-08-03T00:45:28.991Z,78.06
2022-08-03T00:46:28.957Z,78.17
2022-08-03T00:47:28.943Z,78.06
2022-08-03T00:48:33.174Z,78.17
2022-08-03T00:49:28.983Z,78.06
2022-08-03T00:50:28.892Z,78.17
2022-08-03T00:51:28.880Z,78.56
2022-08-03T00:52:28.862Z,78.27
2022-08-03T00:53:28.873Z,78.27
2022-08-03T00:54:28.857Z,78.80
2022-08-03T00:55:28.816Z,78.80
2022-08-03T00:56:28.801Z,79.10
2022-08-03T00:57:28.802Z,79.10
2022-08-03T00:58:28.770Z,78.70
2022-08-03T00:59:28.776Z,78.70
2022-08-03T01:00:28.734Z,79.00
2022-08-03T01:01:32.175Z,78.80
2022-08-03T01:02:28.700Z,78.86
2022-08-03T01:03:28.683Z,79.10
2022-08-03T01:04:28.696Z,78.77
2022-08-03T01:05:28.652Z,78.67
2022-08-03T01:06:28.652Z,78.27
2022-08-03T01:07:28.625Z,78.27
2022-08-03T01:08:28.604Z,78.17
2022-08-03T01:09:28.606Z,78.47
2022-08-03T01:10:28.591Z,78.06
2022-08-03T01:11:28.555Z,78.17
2022-08-03T01:12:28.542Z,78.06
2022-08-03T01:14:01.047Z,78.77
2022-08-03T01:14:28.507Z,78.36
2022-08-03T01:15:28.491Z,78.00
2022-08-03T01:16:36.744Z,78.41
2022-08-03T01:17:28.464Z,78.80
2022-08-03T01:18:28.445Z,79.41
2022-08-03T01:19:28.434Z,79.00
2022-08-03T01:20:28.418Z,79.10
2022-08-03T01:21:28.394Z,79.21
2022-08-03T01:22:28.403Z,79.41
2022-08-03T01:23:28.943Z,79.10
2022-08-03T01:24:28.350Z,79.10
2022-08-03T01:25:28.331Z,79.44
2022-08-03T01:26:28.316Z,79.04
2022-08-03T01:27:28.319Z,78.91
2022-08-03T01:28:28.286Z,79.00
2022-08-03T01:29:28.275Z,79.54
2022-08-03T01:30:28.257Z,79.71
2022-08-03T01:31:28.234Z,79.64
2022-08-03T01:32:58.715Z,80.48
2022-08-03T01:33:28.209Z,80.24
2022-08-03T01:34:28.189Z,81.09
2022-08-03T01:35:28.186Z,80.65
2022-08-03T01:36:28.156Z,80.48
2022-08-03T01:37:28.136Z,81.18
2022-08-03T01:38:28.140Z,80.88
2022-08-03T01:39:28.103Z,80.98
2022-08-03T01:40:28.094Z,80.98
2022-08-03T01:41:28.083Z,81.23
2022-08-03T01:42:28.061Z,81.42
2022-08-03T01:43:55.322Z,81.82
2022-08-03T01:44:30.937Z,82.63
2022-08-03T01:45:28.009Z,82.73
2022-08-03T01:46:27.987Z,82.53
2022-08-03T01:47:27.984Z,82.63
2022-08-03T01:48:27.958Z,82.43
2022-08-03T01:49:28.051Z,82.63
2022-08-03T01:50:27.941Z,82.32
2022-08-03T01:51:58.496Z,82.82
2022-08-03T01:52:27.892Z,82.53
2022-08-03T01:53:27.897Z,82.03
2022-08-03T01:54:27.878Z,82.53
2022-08-03T01:55:27.843Z,82.32
2022-08-03T01:56:27.824Z,82.53
2022-08-03T01:57:27.810Z,82.73
2022-08-03T01:58:27.796Z,82.73
2022-08-03T01:59:27.779Z,82.23
2022-08-03T02:00:27.777Z,82.03
2022-08-03T02:01:27.794Z,82.37
2022-08-03T02:02:32.599Z,82.67
2022-08-03T02:03:27.715Z,83.07
2022-08-03T02:04:27.696Z,82.97
2022-08-03T02:05:27.703Z,82.10
2022-08-03T02:07:00.195Z,81.96
2022-08-03T02:07:27.651Z,82.76
2022-08-03T02:08:27.629Z,82.87
2022-08-03T02:09:27.610Z,82.97
2022-08-03T02:10:35.319Z,83.37
2022-08-03T02:11:27.581Z,83.91
2022-08-03T02:12:27.564Z,83.57
2022-08-03T02:13:27.559Z,83.77
2022-08-03T02:14:27.530Z,83.87
2022-08-03T02:15:27.540Z,83.97
2022-08-03T02:16:27.501Z,83.87
2022-08-03T02:17:39.466Z,84.11
2022-08-03T02:18:27.463Z,83.97
2022-08-03T02:19:29.445Z,83.87
2022-08-03T02:20:27.429Z,83.71
2022-08-03T02:21:57.493Z,82.76
2022-08-03T02:22:27.420Z,83.21
2022-08-03T02:23:27.382Z,83.67
2022-08-03T02:24:27.361Z,83.67
2022-08-03T02:25:27.345Z,83.41
2022-08-03T02:26:27.332Z,83.87
2022-08-03T02:27:27.350Z,84.01
2022-08-03T02:28:27.296Z,83.87
2022-08-03T02:29:39.103Z,83.67
2022-08-03T02:30:27.268Z,83.87
2022-08-03T02:31:27.258Z,83.87
2022-08-03T02:32:27.256Z,83.87
2022-08-03T02:33:27.211Z,82.81
2022-08-03T02:34:27.201Z,82.76
2022-08-03T02:35:27.201Z,82.67
2022-08-03T02:36:27.169Z,82.76
2022-08-03T02:37:27.157Z,82.76
2022-08-03T02:38:27.127Z,82.57
2022-08-03T02:39:27.116Z,82.43
2022-08-03T02:40:27.135Z,82.87
2022-08-03T02:41:27.102Z,81.87
2022-08-03T02:42:27.071Z,82.46
2022-08-03T02:43:27.050Z,82.37
2022-08-03T02:44:27.034Z,81.87
2022-08-03T02:45:27.013Z,81.96
2022-08-03T02:46:27.002Z,82.46
2022-08-03T02:47:27.014Z,82.67
2022-08-03T02:48:26.968Z,82.67
2022-08-03T02:49:51.075Z,82.87
2022-08-03T02:50:26.955Z,82.76
2022-08-03T02:51:26.912Z,83.77
2022-08-03T02:52:26.909Z,83.87
2022-08-03T02:53:26.898Z,84.01
2022-08-03T02:54:26.890Z,83.97
2022-08-03T02:55:26.846Z,83.91
2022-08-03T02:56:26.834Z,83.81
2022-08-03T02:57:26.813Z,83.51
2022-08-03T02:58:26.811Z,83.71
2022-08-03T02:59:26.790Z,83.71
2022-08-03T03:00:27.958Z,83.51
2022-08-03T03:01:26.817Z,83.41
2022-08-03T03:02:26.740Z,83.91
2022-08-03T03:03:28.951Z,84.11
2022-08-03T03:04:30.696Z,84.11
2022-08-03T03:05:52.355Z,83.81
2022-08-03T03:06:26.665Z,83.71
2022-08-03T03:07:26.650Z,84.01
2022-08-03T03:08:28.142Z,84.21
2022-08-03T03:09:26.620Z,84.11
2022-08-03T03:10:26.622Z,83.81
2022-08-03T03:11:26.592Z,84.01
2022-08-03T03:12:26.572Z,83.91
2022-08-03T03:13:26.553Z,83.81
2022-08-03T03:14:33.506Z,84.01
2022-08-03T03:15:26.545Z,83.61
2022-08-03T03:16:26.503Z,83.81
2022-08-03T03:17:26.491Z,83.75
2022-08-03T03:18:26.470Z,84.05
2022-08-03T03:19:26.451Z,83.85
2022-08-03T03:20:30.059Z,84.45
2022-08-03T03:21:26.426Z,84.55
2022-08-03T03:22:26.405Z,84.65
2022-08-03T03:23:26.382Z,84.65
2022-08-03T03:24:26.373Z,84.65
2022-08-03T03:25:26.366Z,84.55
2022-08-03T03:26:26.358Z,84.69
2022-08-03T03:27:26.317Z,84.49
2022-08-03T03:28:26.299Z,85.10
2022-08-03T03:29:26.279Z,84.49
2022-08-03T03:30:26.265Z,84.35
2022-08-03T03:31:26.266Z,85.05
2022-08-03T03:32:26.257Z,84.25
2022-08-03T03:33:28.390Z,84.35
2022-08-03T03:34:26.195Z,84.25
2022-08-03T03:35:26.181Z,84.05
2022-08-03T03:36:26.165Z,84.15
2022-08-03T03:37:26.169Z,84.15
2022-08-03T03:38:26.131Z,83.95
2022-08-03T03:39:26.115Z,84.05
2022-08-03T03:40:26.105Z,83.45
2022-08-03T03:41:26.083Z,83.65
2022-08-03T03:42:26.082Z,84.15
2022-08-03T03:43:26.046Z,83.55
2022-08-03T03:44:26.043Z,83.35
2022-08-03T03:45:26.014Z,83.35
2022-08-03T03:46:25.998Z,83.95
2022-08-03T03:47:32.467Z,83.81
2022-08-03T03:48:25.969Z,83.71
2022-08-03T03:49:25.997Z,83.81
2022-08-03T03:50:25.930Z,84.01
2022-08-03T03:51:25.918Z,84.01
2022-08-03T03:52:25.896Z,83.91
2022-08-03T03:53:25.915Z,83.91
2022-08-03T03:54:29.111Z,82.90
2022-08-03T03:55:25.866Z,83.21
2022-08-03T03:56:25.836Z,82.60
2022-08-03T03:57:25.808Z,82.90
2022-08-03T03:58:25.805Z,82.76
2022-08-03T03:59:25.777Z,82.70
2022-08-03T04:00:25.803Z,82.76
2022-08-03T04:01:25.894Z,83.21
2022-08-03T04:02:25.728Z,82.57
2022-08-03T04:03:25.709Z,82.97
2022-08-03T04:04:25.704Z,83.01
2022-08-03T04:05:25.693Z,82.17
2022-08-03T04:06:25.682Z,82.67
2022-08-03T04:07:25.644Z,82.76
2022-08-03T04:08:25.637Z,82.87
2022-08-03T04:09:25.611Z,82.81
2022-08-03T04:10:25.591Z,82.60
2022-08-03T04:11:29.316Z,83.11
2022-08-03T04:12:25.585Z,82.67
2022-08-03T04:13:25.542Z,82.97
2022-08-03T04:14:25.524Z,82.81
2022-08-03T04:15:25.511Z,82.46
2022-08-03T04:16:25.491Z,83.07
2022-08-03T04:17:25.485Z,82.67
2022-08-03T04:18:25.481Z,82.70
2022-08-03T04:19:25.442Z,82.90
2022-08-03T04:20:25.440Z,84.01
2022-08-03T04:21:25.418Z,82.70
2022-08-03T04:22:25.397Z,82.90
2022-08-03T04:23:25.397Z,82.90
2022-08-03T04:24:26.448Z,82.60
2022-08-03T04:25:25.349Z,83.01
2022-08-03T04:26:25.325Z,82.06
2022-08-03T04:27:25.330Z,81.96
2022-08-03T04:28:30.579Z,82.17
2022-08-03T04:29:25.277Z,81.87
2022-08-03T04:30:25.258Z,82.06
2022-08-03T04:31:25.245Z,82.37
2022-08-03T04:32:25.255Z,81.96
2022-08-03T04:33:25.209Z,82.46
2022-08-03T04:34:25.193Z,82.76
2022-08-03T04:35:25.176Z,82.26
2022-08-03T04:36:25.161Z,81.87
2022-08-03T04:37:25.142Z,82.37
2022-08-03T04:38:25.162Z,82.37
2022-08-03T04:39:25.107Z,81.87
2022-08-03T04:40:25.090Z,82.46
2022-08-03T04:41:25.072Z,81.96
2022-08-03T04:42:25.118Z,82.17
2022-08-03T04:43:25.040Z,82.37
2022-08-03T04:44:28.427Z,82.17
2022-08-03T04:45:25.006Z,81.87
2022-08-03T04:46:24.996Z,81.87
2022-08-03T04:47:24.981Z,82.26
2022-08-03T04:48:24.970Z,82.03
2022-08-03T04:49:24.990Z,82.23
2022-08-03T04:50:24.943Z,81.82
2022-08-03T04:51:24.923Z,81.42
2022-08-03T04:52:24.895Z,81.62
2022-08-03T04:53:24.875Z,81.62
2022-08-03T04:54:24.866Z,81.52
2022-08-03T04:55:24.864Z,81.42
2022-08-03T04:56:24.832Z,81.42
2022-08-03T04:57:24.817Z,81.62
2022-08-03T04:58:24.799Z,81.42
2022-08-03T04:59:24.778Z,81.52
2022-08-03T05:00:24.773Z,80.72
2022-08-03T05:01:24.801Z,80.92
2022-08-03T05:02:24.730Z,81.32
2022-08-03T05:03:25.137Z,80.79
2022-08-03T05:04:24.704Z,80.92
2022-08-03T05:05:24.705Z,81.18
2022-08-03T05:06:25.025Z,80.48
2022-08-03T05:07:25.168Z,80.38
2022-08-03T05:08:28.075Z,80.28
2022-08-03T05:09:45.778Z,80.28
2022-08-03T05:10:24.600Z,80.38
2022-08-03T05:11:24.611Z,80.15
2022-08-03T05:12:26.486Z,79.94
2022-08-03T05:13:24.556Z,80.15
2022-08-03T05:14:28.102Z,80.15
2022-08-03T05:15:24.519Z,80.15
2022-08-03T05:16:24.517Z,79.74
2022-08-03T05:17:24.499Z,79.64
2022-08-03T05:18:24.474Z,79.64
2022-08-03T05:19:24.452Z,79.60
2022-08-03T05:20:24.433Z,79.41
2022-08-03T05:21:24.436Z,79.41
2022-08-03T05:22:24.407Z,79.30
2022-08-03T05:23:24.405Z,79.50
2022-08-03T05:24:24.395Z,78.91
2022-08-03T05:25:27.303Z,78.91
2022-08-03T05:26:24.347Z,78.70
2022-08-03T05:27:24.323Z,78.50
2022-08-03T05:28:24.307Z,78.41
2022-08-03T05:29:24.293Z,78.36
2022-08-03T05:30:32.309Z,78.36
2022-08-03T05:31:24.281Z,78.36
2022-08-03T05:32:24.262Z,78.17
2022-08-03T05:33:24.237Z,78.77
2022-08-03T05:34:24.209Z,78.86
2022-08-03T05:43:15.307Z,77.73
2022-08-03T05:44:14.816Z,77.13
2022-08-03T05:45:14.838Z,77.73
2022-08-03T05:46:14.775Z,77.56
2022-08-03T05:47:14.762Z,77.56
2022-08-03T05:48:14.764Z,77.73
2022-08-03T05:49:14.783Z,76.93
2022-08-03T05:50:14.714Z,77.33
2022-08-03T05:51:14.708Z,76.83
2022-08-03T05:52:14.752Z,76.43
2022-08-03T05:53:22.716Z,76.39
2022-08-03T05:54:18.219Z,76.39
2022-08-03T05:55:14.639Z,76.59
2022-08-03T05:56:16.382Z,77.19
2022-08-03T05:57:14.604Z,75.69
2022-08-03T05:58:14.588Z,75.99
2022-08-03T05:59:36.927Z,75.99
2022-08-03T06:00:14.556Z,76.15
2022-08-03T06:01:14.618Z,76.45
2022-08-03T06:02:14.759Z,75.76
2022-08-03T06:03:14.509Z,75.46
2022-08-03T06:04:14.499Z,75.16
2022-08-03T06:05:14.478Z,74.55
2022-08-03T06:06:14.475Z,74.26
2022-08-03T06:07:14.448Z,74.36
2022-08-03T06:08:15.439Z,74.55
2022-08-03T06:09:14.409Z,74.46
2022-08-03T06:10:37.278Z,74.12
2022-08-03T06:11:14.389Z,74.96
2022-08-03T06:12:14.472Z,74.42
2022-08-03T06:13:14.349Z,74.12
2022-08-03T06:14:14.336Z,74.02
2022-08-03T06:15:14.315Z,74.32
2022-08-03T06:16:14.300Z,74.32
2022-08-03T06:17:14.287Z,74.12
2022-08-03T06:18:14.285Z,73.88
2022-08-03T06:19:14.270Z,74.68
2022-08-03T06:20:14.252Z,73.99
2022-08-03T06:21:16.173Z,72.69
2022-08-03T06:22:14.379Z,73.19
2022-08-03T06:23:16.232Z,73.95
2022-08-03T06:24:14.176Z,73.15
2022-08-03T06:25:14.280Z,73.45
2022-08-03T06:26:14.149Z,73.95
2022-08-03T06:27:14.152Z,73.35
2022-08-03T06:28:35.205Z,72.95
2022-08-03T06:29:14.119Z,74.05
2022-08-03T06:30:18.088Z,72.95
2022-08-03T06:31:14.090Z,73.45
2022-08-03T06:32:14.402Z,73.05
2022-08-03T06:33:14.043Z,73.85
2022-08-03T06:34:32.155Z,72.65
2022-08-03T06:35:14.020Z,73.11
2022-08-03T06:36:13.988Z,73.32
2022-08-03T06:37:13.970Z,72.81
2022-08-03T06:38:13.959Z,72.92
2022-08-03T06:39:13.964Z,72.72
2022-08-03T06:40:14.131Z,73.22
2022-08-03T06:41:13.911Z,72.92
2022-08-03T06:42:13.989Z,72.92
2022-08-03T06:43:13.886Z,72.88
2022-08-03T06:44:13.905Z,73.08
2022-08-03T06:45:13.850Z,72.98
2022-08-03T06:46:13.832Z,72.78
2022-08-03T06:47:13.828Z,72.49
2022-08-03T06:48:13.821Z,72.49
2022-08-03T06:49:13.860Z,71.39
2022-08-03T06:50:16.185Z,71.78
2022-08-03T06:51:13.757Z,71.59
2022-08-03T06:52:13.751Z,70.79
2022-08-03T06:53:18.216Z,71.59
2022-08-03T06:54:13.725Z,71.75
2022-08-03T06:55:13.700Z,71.65
2022-08-03T06:56:13.702Z,71.45
2022-08-03T06:57:13.682Z,72.05
2022-08-03T06:58:13.649Z,71.32
2022-08-03T07:00:09.957Z,71.62
2022-08-03T07:00:13.623Z,70.62
2022-08-03T07:01:13.655Z,70.82
2022-08-03T07:02:19.116Z,70.82
2022-08-03T07:03:13.573Z,70.79
2022-08-03T07:04:13.557Z,70.39
2022-08-03T07:05:13.547Z,70.89
2022-08-03T07:06:13.535Z,70.39
2022-08-03T07:07:13.533Z,70.19
2022-08-03T07:08:13.507Z,71.09
2022-08-03T07:09:13.488Z,69.79
2022-08-03T07:10:13.470Z,71.19
2022-08-03T07:11:13.457Z,70.36
2022-08-03T07:12:13.455Z,70.15
2022-08-03T07:13:13.421Z,69.66
2022-08-03T07:14:13.408Z,69.92
2022-08-03T07:15:20.364Z,69.92
2022-08-03T07:16:13.400Z,69.39
2022-08-03T07:17:13.360Z,69.20
2022-08-03T07:18:13.362Z,69.43
2022-08-03T07:19:13.341Z,69.59
2022-08-03T07:20:13.317Z,69.43
2022-08-03T07:21:13.306Z,69.82
2022-08-03T07:22:13.311Z,69.53
2022-08-03T07:23:18.944Z,69.69
2022-08-03T07:24:13.258Z,69.69
2022-08-03T07:25:13.247Z,69.73
2022-08-03T07:26:13.228Z,69.73
2022-08-03T07:27:13.212Z,69.82
2022-08-03T07:28:13.214Z,69.79
2022-08-03T07:29:15.372Z,69.29
2022-08-03T07:30:13.187Z,69.69
2022-08-03T07:31:13.149Z,69.79
2022-08-03T07:32:13.158Z,68.99
2022-08-03T07:33:13.121Z,68.50
2022-08-03T07:34:13.140Z,68.60
2022-08-03T07:35:22.725Z,69.20
2022-08-03T07:36:13.075Z,69.29
2022-08-03T07:37:13.060Z,69.29
2022-08-03T07:38:13.126Z,69.69
2022-08-03T07:39:17.498Z,69.59
2022-08-03T07:40:13.021Z,69.06
2022-08-03T07:41:13.019Z,69.16
2022-08-03T07:42:12.994Z,69.26
2022-08-03T07:43:12.972Z,69.16
2022-08-03T07:44:12.973Z,68.66
2022-08-03T07:45:16.790Z,68.46
2022-08-03T07:46:12.934Z,68.13
2022-08-03T07:47:22.413Z,68.23
2022-08-03T07:48:12.931Z,68.23
2022-08-03T07:49:12.963Z,68.23
2022-08-03T07:50:12.872Z,68.43
2022-08-03T07:51:12.927Z,68.04
2022-08-03T07:52:12.843Z,68.04
2022-08-03T07:53:12.837Z,67.94
2022-08-03T07:54:12.834Z,68.30
2022-08-03T07:55:12.800Z,68.30
2022-08-03T07:56:12.804Z,67.71
2022-08-03T07:57:12.785Z,68.20
2022-08-03T07:58:12.821Z,67.18
2022-08-03T07:59:12.755Z,67.50
2022-08-03T08:00:12.727Z,68.27
2022-08-03T08:01:15.032Z,66.78
2022-08-03T08:02:12.696Z,68.07
2022-08-03T08:03:12.682Z,67.24
2022-08-03T08:04:12.669Z,66.15
2022-08-03T08:05:12.713Z,65.75
2022-08-03T08:06:12.656Z,65.36
2022-08-03T08:07:12.625Z,65.95
2022-08-03T08:08:12.629Z,65.36
2022-08-03T08:09:12.596Z,65.42
2022-08-03T08:10:12.589Z,65.72
2022-08-03T08:11:12.587Z,64.60
2022-08-03T08:12:15.044Z,64.40
2022-08-03T08:13:12.541Z,64.70
2022-08-03T08:14:12.528Z,64.34
2022-08-03T08:15:12.514Z,65.00
2022-08-03T08:16:12.515Z,65.20
2022-08-03T08:17:12.482Z,63.21
2022-08-03T08:18:12.487Z,64.17
2022-08-03T08:19:12.820Z,65.06
2022-08-03T08:20:12.445Z,63.06
2022-08-03T08:21:12.457Z,63.06
2022-08-03T08:22:12.431Z,63.15
2022-08-03T08:23:41.572Z,62.33
2022-08-03T08:24:15.245Z,63.12
2022-08-03T08:25:12.372Z,62.99
2022-08-03T08:26:12.362Z,62.30
2022-08-03T08:27:12.367Z,61.11
2022-08-03T08:28:29.831Z,61.41
2022-08-03T08:29:12.339Z,60.13
2022-08-03T08:30:15.978Z,60.32
2022-08-03T08:31:12.293Z,60.30
2022-08-03T08:32:12.357Z,61.94
2022-08-03T08:33:22.351Z,60.46
2022-08-03T08:34:12.254Z,60.76
2022-08-03T08:35:12.242Z,59.97
2022-08-03T08:36:15.338Z,59.77
2022-08-03T08:37:12.218Z,59.45
2022-08-03T08:38:12.199Z,58.56
2022-08-03T08:39:12.205Z,58.46
2022-08-03T08:40:12.171Z,57.47
2022-08-03T08:41:12.167Z,57.79
2022-08-03T08:42:12.190Z,58.09
2022-08-03T08:43:12.134Z,58.39
2022-08-03T08:44:12.118Z,58.86
2022-08-03T08:45:12.135Z,57.87
2022-08-03T08:46:23.259Z,57.05
2022-08-03T08:47:12.081Z,56.46
2022-08-03T08:48:12.067Z,55.74
2022-08-03T08:49:12.095Z,57.22
2022-08-03T08:50:27.322Z,56.01
2022-08-03T08:51:12.048Z,55.32
2022-08-03T08:52:25.249Z,55.15
2022-08-03T08:53:18.368Z,55.22
2022-08-03T08:54:11.986Z,55.12
2022-08-03T08:55:11.971Z,55.54
2022-08-03T08:56:12.078Z,55.51
2022-08-03T08:57:26.877Z,54.03
2022-08-03T08:58:11.939Z,53.84
2022-08-03T08:59:11.930Z,53.94
2022-08-03T09:00:11.911Z,54.13
2022-08-03T09:01:11.925Z,54.36
2022-08-03T09:02:11.952Z,54.33
2022-08-03T09:03:11.873Z,54.82
2022-08-03T09:04:11.889Z,53.34
2022-08-03T09:05:11.855Z,54.80
2022-08-03T09:06:11.833Z,54.11
2022-08-03T09:07:20.158Z,53.99
2022-08-03T09:08:11.823Z,52.73
2022-08-03T09:09:11.796Z,53.61
2022-08-03T09:10:13.666Z,53.71
2022-08-03T09:11:12.152Z,53.30
2022-08-03T09:12:37.473Z,53.76
2022-08-03T09:13:11.777Z,54.25
2022-08-03T09:14:39.198Z,53.54
2022-08-03T09:15:16.972Z,53.70
2022-08-03T09:16:11.704Z,52.72
2022-08-03T09:17:17.221Z,51.74
2022-08-03T09:18:11.703Z,51.74
2022-08-03T09:19:11.675Z,53.12
2022-08-03T09:20:11.657Z,52.50
2022-08-03T09:21:30.009Z,52.60
2022-08-03T09:22:11.659Z,52.11
2022-08-03T09:23:51.592Z,49.13
2022-08-03T09:24:25.723Z,51.20
2022-08-03T09:25:26.368Z,51.50
2022-08-03T09:26:11.586Z,50.90
2022-08-03T09:27:11.623Z,49.80
2022-08-03T09:28:11.589Z,50.37
2022-08-03T09:29:14.959Z,50.93
2022-08-03T09:30:33.390Z,50.42
2022-08-03T09:31:11.545Z,49.92
2022-08-03T09:32:11.523Z,49.33
2022-08-03T09:33:12.300Z,49.33
2022-08-03T09:34:11.516Z,49.07
2022-08-03T09:35:11.492Z,49.26
2022-08-03T09:36:11.531Z,48.55
2022-08-03T09:37:11.473Z,49.02
2022-08-03T09:38:13.528Z,48.11
2022-08-03T09:39:11.443Z,48.63
2022-08-03T09:40:11.441Z,48.23
2022-08-03T09:41:11.416Z,48.97
2022-08-03T09:42:11.416Z,48.09
2022-08-03T09:43:11.398Z,46.62
2022-08-03T09:44:24.536Z,46.42
2022-08-03T09:45:11.390Z,46.72
2022-08-03T09:46:11.366Z,46.84
2022-08-03T09:47:11.358Z,47.89
2022-08-03T09:48:11.344Z,47.69
2022-08-03T09:49:11.722Z,47.75
2022-08-03T09:50:11.367Z,46.08
2022-08-03T09:51:13.574Z,46.62
2022-08-03T09:52:38.495Z,46.37
2022-08-03T09:53:11.296Z,46.95
2022-08-03T09:54:18.858Z,47.79
2022-08-03T09:56:04.996Z,46.79
2022-08-03T09:56:35.988Z,46.01
2022-08-03T09:57:11.286Z,45.40
2022-08-03T09:58:11.260Z,45.65
2022-08-03T09:59:11.246Z,44.16
2022-08-03T10:00:11.245Z,44.20
2022-08-03T10:01:23.880Z,45.40
2022-08-03T10:02:11.231Z,45.98
2022-08-03T10:03:11.236Z,44.91
2022-08-03T10:04:11.231Z,45.06
2022-08-03T10:05:11.208Z,45.53
2022-08-03T10:06:11.221Z,44.35
2022-08-03T10:07:11.196Z,44.74
2022-08-03T10:08:11.192Z,44.69
2022-08-03T10:09:11.180Z,44.40
2022-08-03T10:10:31.080Z,45.01
2022-08-03T10:11:11.192Z,45.50
2022-08-03T10:12:11.186Z,45.40
2022-08-03T10:13:11.162Z,45.32
2022-08-03T10:14:11.153Z,45.93
2022-08-03T10:16:23.179Z,45.93
2022-08-03T10:16:23.955Z,45.72
2022-08-03T10:17:11.141Z,44.62
2022-08-03T10:18:11.145Z,45.52
2022-08-03T10:19:11.134Z,44.93
2022-08-03T10:20:11.258Z,46.23
2022-08-03T10:21:11.119Z,45.93
2022-08-03T10:22:11.135Z,46.01
2022-08-03T10:23:11.103Z,45.30
2022-08-03T10:24:11.113Z,44.91
2022-08-03T10:25:11.198Z,45.30
2022-08-03T10:26:11.135Z,43.69
2022-08-03T10:27:11.141Z,43.26
2022-08-03T10:28:11.128Z,42.55
2022-08-03T10:29:12.900Z,43.19
2022-08-03T10:30:11.083Z,41.81
2022-08-03T10:31:11.061Z,41.63
2022-08-03T10:32:11.047Z,42.36
2022-08-03T10:33:50.099Z,43.38
2022-08-03T10:34:11.063Z,43.42
2022-08-03T10:35:18.988Z,44.01
2022-08-03T10:36:11.026Z,43.54
2022-08-03T10:37:11.023Z,45.50
2022-08-03T10:38:11.016Z,43.52
2022-08-03T10:39:15.975Z,45.33
2022-08-03T10:40:16.173Z,44.73
2022-08-03T10:41:11.002Z,43.36
2022-08-03T10:42:14.585Z,44.24
2022-08-03T10:43:10.989Z,43.26
2022-08-03T10:44:10.983Z,43.38
2022-08-03T10:45:10.995Z,42.79
2022-08-03T10:46:10.994Z,44.16
2022-08-03T10:47:10.985Z,43.49
2022-08-03T10:48:10.963Z,43.10
2022-08-03T10:49:11.044Z,44.59
2022-08-03T10:50:10.981Z,44.69
2022-08-03T10:51:10.961Z,43.52
2022-08-03T10:52:31.993Z,44.69
2022-08-03T10:53:10.933Z,44.42
2022-08-03T10:54:10.928Z,44.18
2022-08-03T10:55:11.123Z,44.65
2022-08-03T10:56:10.918Z,44.63
2022-08-03T10:57:14.360Z,45.19
2022-08-03T10:58:11.392Z,43.55
2022-08-03T10:59:10.895Z,43.75
2022-08-03T11:00:10.895Z,43.26
2022-08-03T11:01:10.917Z,43.41
2022-08-03T11:02:10.909Z,43.41
2022-08-03T11:03:10.876Z,43.78
2022-08-03T11:04:15.243Z,43.47
2022-08-03T11:05:10.903Z,44.52
2022-08-03T11:06:10.861Z,43.35
2022-08-03T11:07:10.876Z,41.96
2022-08-03T11:08:10.852Z,40.35
2022-08-03T11:09:10.847Z,41.32
2022-08-03T11:10:10.981Z,42.40
2022-08-03T11:11:10.848Z,41.60
2022-08-03T11:12:10.830Z,40.81
2022-08-03T11:13:10.842Z,41.40
2022-08-03T11:14:10.815Z,41.30
2022-08-03T11:15:10.859Z,41.93
2022-08-03T11:16:16.119Z,40.78
2022-08-03T11:17:15.160Z,42.26
2022-08-03T11:18:11.239Z,41.21
2022-08-03T11:19:10.845Z,42.38
2022-08-03T11:20:10.804Z,42.19
2022-08-03T11:21:10.795Z,43.28
2022-08-03T11:22:10.776Z,44.55
2022-08-03T11:23:10.791Z,43.46
2022-08-03T11:24:10.775Z,42.38
2022-08-03T11:25:53.941Z,42.97
2022-08-03T11:26:10.759Z,43.14
2022-08-03T11:27:10.751Z,42.29
2022-08-03T11:28:10.761Z,42.30
2022-08-03T11:29:10.763Z,43.46
2022-08-03T11:30:10.749Z,41.38
2022-08-03T11:31:22.373Z,43.32
2022-08-03T11:32:10.721Z,41.54
2022-08-03T11:33:10.717Z,40.47
2022-08-03T11:34:10.741Z,40.35
2022-08-03T11:35:10.708Z,41.71
2022-08-03T11:36:10.698Z,38.85
2022-08-03T11:37:10.710Z,39.92
2022-08-03T11:38:10.688Z,40.41
2022-08-03T11:39:10.690Z,40.99
2022-08-03T11:40:10.698Z,40.81
2022-08-03T11:41:10.676Z,40.17
2022-08-03T11:42:10.675Z,40.48
2022-08-03T11:43:10.684Z,42.61
2022-08-03T11:44:10.658Z,41.91
2022-08-03T11:45:10.667Z,41.30
2022-08-03T11:46:10.671Z,39.98
2022-08-03T11:47:10.653Z,38.89
2022-08-03T11:48:10.643Z,38.87
2022-08-03T11:49:11.352Z,39.82
2022-08-03T11:50:10.637Z,40.31
2022-08-03T11:51:10.654Z,40.60
2022-08-03T11:52:10.628Z,39.92
2022-08-03T11:53:10.639Z,40.00
2022-08-03T11:54:10.610Z,39.00
2022-08-03T11:55:10.611Z,38.11
2022-08-03T11:56:13.042Z,39.94
2022-08-03T11:57:10.614Z,39.67
2022-08-03T11:59:01.553Z,38.13
2022-08-03T11:59:20.738Z,40.09
2022-08-03T12:00:10.590Z,40.17
2022-08-03T12:01:10.606Z,40.08
2022-08-03T12:02:10.694Z,38.26
2022-08-03T12:03:10.677Z,40.33
2022-08-03T12:04:10.579Z,38.95
2022-08-03T12:05:10.583Z,38.28
2022-08-03T12:06:10.566Z,38.67
2022-08-03T12:07:10.613Z,38.69
2022-08-03T12:08:10.573Z,39.29
2022-08-03T12:09:10.571Z,38.98
2022-08-03T12:10:10.550Z,38.98
2022-08-03T12:11:10.559Z,40.16
2022-08-03T12:12:10.540Z,40.91
2022-08-03T12:14:28.878Z,40.91
2022-08-03T12:14:49.088Z,39.65
2022-08-03T12:15:10.549Z,40.31
2022-08-03T12:16:10.525Z,39.94
2022-08-03T12:17:10.521Z,40.11
2022-08-03T12:18:11.090Z,39.72
2022-08-03T12:19:10.511Z,38.64
2022-08-03T12:20:10.549Z,39.22
2022-08-03T12:21:10.513Z,38.83
2022-08-03T12:22:10.521Z,39.00
2022-08-03T12:23:10.516Z,37.16
2022-08-03T12:24:10.582Z,37.84
2022-08-03T12:25:10.495Z,37.92
2022-08-03T12:26:10.491Z,37.84
2022-08-03T12:27:10.485Z,37.26
2022-08-03T12:28:36.294Z,37.08
2022-08-03T12:29:10.502Z,37.60
2022-08-03T12:30:10.477Z,39.37
2022-08-03T12:31:10.467Z,38.79
2022-08-03T12:32:10.473Z,38.96
2022-08-03T12:33:10.495Z,39.26
2022-08-03T12:34:10.496Z,38.49
2022-08-03T12:35:10.454Z,38.30
2022-08-03T12:36:10.457Z,39.16
2022-08-03T12:37:21.847Z,38.96
2022-08-03T12:38:10.444Z,39.34
2022-08-03T12:39:10.438Z,37.95
2022-08-03T12:40:11.156Z,38.11
2022-08-03T12:41:10.425Z,37.82
2022-08-03T12:42:10.456Z,37.88
2022-08-03T12:43:10.431Z,37.92
2022-08-03T12:44:10.425Z,38.03
2022-08-03T12:45:10.443Z,37.54
2022-08-03T12:46:10.404Z,38.44
2022-08-03T12:47:10.423Z,39.31
2022-08-03T12:48:10.414Z,37.93
2022-08-03T12:49:10.425Z,38.42
2022-08-03T12:50:10.387Z,38.09
2022-08-03T12:51:10.389Z,35.64
2022-08-03T12:52:10.395Z,35.90
2022-08-03T12:53:10.377Z,35.92
2022-08-03T12:54:10.367Z,36.77
2022-08-03T12:55:10.408Z,39.37
2022-08-03T12:56:10.357Z,34.23
2022-08-03T12:57:10.373Z,35.57
2022-08-03T12:58:10.379Z,35.66
2022-08-03T12:59:10.348Z,36.85
2022-08-03T13:00:21.664Z,34.06